Weather observations for the past three days for
Phillips Army Air Field / Aberdeen
| Date | Time (edt) | Wind (mph) | Vis. (mi.) | Weather | Sky Cond. | Temperature (ºF) | Relative Humidity | Wind Chill (°F) | Heat Index (°F) | Pressure | Precipitation (in) | ||||||
|---|---|---|---|---|---|---|---|---|---|---|---|---|---|---|---|---|---|
| Air | Dwpt | 6 hour | altimeter (in) | sea level (mb) | 1 hr | 3 hr | 6 hr | ||||||||||
| Max. | Min. | ||||||||||||||||
| 07 | 13:55 | Calm | 7.00 | Partly Cloudy | SCT050 | 62.6 | 41 | 45% | 29.82 | 1010.1 | |||||||
| 07 | 12:55 | E 6 | 10.00 | Partly Cloudy | SCT050 | 60.6 | 44.4 | 55% | 29.85 | 1011.1 | |||||||
| 07 | 11:55 | N 5 | 10.00 | Overcast | OVC080 | 57.2 | 42.8 | 59% | 29.88 | 0.0 | |||||||
| 07 | 10:55 | N 3 | 10.00 | Overcast | OVC080 | 55.4 | 42.8 | 63% | 29.9 | 0.0 | |||||||
| 07 | 09:55 | N 6 | 10.00 | Overcast | OVC070 | 54.3 | 43.5 | 67% | 29.91 | 1013.1 | |||||||
| 07 | 08:55 | NW 5 | 10.00 | Overcast | OVC065 | 52.9 | 45.1 | 75% | 29.9 | 1012.8 | |||||||
| 07 | 07:55 | NW 5 | 10.00 | Overcast | OVC060 | 52.9 | 50.4 | 56.1 | 51.3 | 91% | 29.9 | 1012.8 | 0.01 | ||||
| 07 | 06:55 | Calm | 10.00 | Overcast | OVC055 | 51.8 | 50.4 | 95% | 29.89 | 1012.4 | |||||||
| 07 | 05:55 | SW 3 | 9.00 | Overcast | OVC050 | 51.8 | 50.9 | 97% | 29.87 | 1011.8 | |||||||
| 07 | 04:55 | Calm | 10.00 | Overcast | FEW030 SCT036 OVC049 | 51.6 | 49.3 | 92% | 29.86 | 1011.4 | 0.01 | ||||||
| 07 | 03:55 | NE 7 | 10.00 | Overcast | OVC046 | 52.7 | 49.5 | 89% | 29.84 | 1010.7 | |||||||
| 07 | 02:55 | N 9 | 10.00 | Overcast | OVC047 | 54.3 | 51.8 | 91% | 29.85 | 1011.1 | 0.01 | ||||||
| 07 | 01:55 | N 5 | 7.00 | Overcast | FEW002 BKN020 OVC032 | 56.3 | 54.3 | 66 | 56.3 | 93% | 29.84 | 1010.7 | 0.11 | 0.11 | |||
| 07 | 00:55 | NW 6 | 10.00 | Overcast | OVC043 | 60.3 | 53.4 | 78% | 29.83 | 1010.4 | |||||||
| 06 | 23:55 | N 8 | 10.00 | Overcast | OVC041 | 62.4 | 55.4 | 78% | 29.82 | 1010.1 | |||||||
| 06 | 22:55 | NW 6 | 10.00 | Overcast | OVC026 | 65.3 | 59.7 | 82% | 29.8 | 1009.4 | |||||||
| 06 | 21:55 | NW 5 | 10.00 | Overcast | SCT023 BKN031 OVC041 | 64.9 | 61.3 | 88% | 29.8 | 1009.4 | |||||||
| 06 | 20:55 | SW 6 | 10.00 | Overcast | OVC055 | 65.1 | 60.8 | 86% | 29.79 | 1009.0 | |||||||
| 06 | 19:55 | SW 7 | 10.00 | Partly Cloudy | FEW041 SCT049 SCT070 | 65.5 | 60.8 | 70 | 64 | 85% | 29.78 | 1008.7 | |||||
| 06 | 18:55 | SW 8 | 10.00 | Mostly Cloudy | SCT050 SCT070 BKN090 | 67.6 | 61.5 | 81% | 29.77 | 1008.3 | |||||||
| 06 | 17:55 | SW 12 | 10.00 | Overcast | OVC055 | 68.5 | 61 | 77% | 29.76 | 1008.0 | |||||||
| 06 | 16:49 | SW 12 | 10.00 | Overcast | BKN050 OVC070 | 68 | 60.8 | 78% | 29.76 | 0.0 | |||||||
| 06 | 14:54 | SW 9 | 10.00 | Overcast | OVC020 | 66.2 | 60.8 | 83% | 29.78 | 1008.7 | |||||||
| 06 | 13:54 | SW 14 | 10.00 | Overcast | BKN012 OVC018 | 64.4 | 60.8 | 88% | 29.79 | 0.0 | |||||||
| 06 | 13:12 | SW 16 G 22 | 10.00 | Overcast | OVC019 | 62.6 | 60.8 | 94% | 29.79 | 0.0 | |||||||
| 06 | 12:52 | SW 15 G 20 | 7.00 | Light Rain | BKN912 OVC023 | 62.6 | 60.8 | 94% | 29.8 | 0.0 | |||||||
| 06 | 11:55 | S 15 | 7.00 | Light Rain | BKN016 OVC040 | 62.6 | 60.8 | 94% | 29.81 | 0.0 | |||||||
| 06 | 10:55 | SW 13 | 7.00 | Light Rain | OVC010 | 62.6 | 59 | 88% | 29.83 | 0.0 | |||||||
| 06 | 09:55 | SW 16 | 7.00 | Light Rain | OVC100 | 63.9 | 57.2 | 79% | 29.83 | 1010.4 | |||||||
| 06 | 08:55 | SW 18 | 10.00 | Overcast | BKN100 OVC150 | 64.4 | 57 | 77% | 29.82 | 1010.0 | |||||||
| 06 | 07:55 | S 17 G 26 | 10.00 | Overcast | BKN100 OVC150 | 65.3 | 56.8 | 68.2 | 64.4 | 74% | 29.82 | 1010.0 | |||||
| 06 | 06:55 | S 16 G 24 | 10.00 | Mostly Cloudy | BKN100 | 64.8 | 56.3 | 74% | 29.81 | 1009.7 | |||||||
| 06 | 05:55 | S 16 G 23 | 10.00 | Mostly Cloudy | BKN120 | 65.1 | 57 | 75% | 29.81 | 1009.7 | |||||||
| 05 | 14:51 | S 16 G 25 | 10.00 | Partly Cloudy | SCT250 | 82.4 | 51.8 | 35% | 81 | 29.82 | 0.0 | ||||||
| 05 | 13:56 | S 16 | 10.00 | Fair | CLR | 80.6 | 53.6 | 39% | 80 | 29.84 | 1010.7 | ||||||
| 05 | 12:50 | S 16 | 10.00 | Fair | CLR | 78.8 | 53.6 | 42% | 79 | 29.87 | 0.0 | ||||||
| 05 | 11:55 | SW 14 | 10.00 | Fair | CLR | 75.4 | 52.5 | 45% | 78 | 29.88 | 1012.1 | ||||||
| 05 | 10:55 | SW 13 | 10.00 | Fair | CLR | 72.5 | 51.6 | 48% | 29.88 | 1012.1 | |||||||
| 05 | 09:55 | SW 10 | 10.00 | Fair | CLR | 71.1 | 51.4 | 50% | 29.88 | 1012.1 | |||||||
| 05 | 08:55 | SW 12 | 10.00 | Partly Cloudy | SCT200 | 67.6 | 50.4 | 54% | 29.89 | 1012.4 | |||||||
| 05 | 07:55 | SW 8 | 10.00 | Partly Cloudy | FEW090 SCT200 | 64.9 | 51.6 | 64.9 | 55.6 | 62% | 29.89 | 1012.4 | |||||
| 05 | 06:55 | SW 5 | 10.00 | Partly Cloudy | FEW090 SCT200 | 59 | 52.5 | 79% | 29.87 | 1011.7 | |||||||
| 05 | 05:58 | S 3 | 10.00 | Fair | CLR | 56.3 | 51.3 | 83% | 29.86 | 1011.4 | |||||||
| 04 | 17:55 | S 13 | 10.00 | Fair | CLR | 73.4 | 42.8 | 33% | 29.82 | 0.0 | |||||||
| 04 | 16:55 | SW 15 G 21 | 10.00 | Fair | CLR | 73.9 | 42.3 | 32% | 29.83 | 1010.4 | |||||||
| 04 | 15:55 | S 14 | 10.00 | Fair | CLR | 73.4 | 41 | 31% | 29.85 | 1011.1 | |||||||
| 04 | 14:55 | SW 16 G 21 | 10.00 | Fair | CLR | 71.6 | 41 | 33% | 29.88 | 0.0 | |||||||
| Date | Time (edt) | Wind (mph) | Vis. (mi.) | Weather | Sky Cond. | Air | Dwpt | Max. | Min. | Relative Humidity | Wind Chill (°F) | Heat Index (°F) | altimeter (in) | sea level (mb) | 1 hr | 3 hr | 6 hr |
| 6 hour | |||||||||||||||||
| Temperature (ºF) | Pressure | Precipitation (in) | |||||||||||||||